sensor_id;sensor_type;location;lat;lon;timestamp;pressure;altitude;pressure_sealevel;temperature;humidity
47710;BME280;33473;51.640;5.892;2023-07-24T00:01:25;100300;;;24.3;60.0
47710;BME280;33473;51.640;5.892;2023-07-24T00:14:46;100300;;;24.4;60.0
47710;BME280;33473;51.640;5.892;2023-07-24T00:28:06;100300;;;24.3;60.0
47710;BME280;33473;51.640;5.892;2023-07-24T00:41:27;100300;;;24.3;60.0
47710;BME280;33473;51.640;5.892;2023-07-24T00:54:48;100300;;;24.2;60.0
47710;BME280;33473;51.640;5.892;2023-07-24T01:08:09;100300;;;24.2;60.0
47710;BME280;33473;51.640;5.892;2023-07-24T01:21:31;100300;;;24.2;60.0
47710;BME280;33473;51.640;5.892;2023-07-24T01:34:50;100300;;;24.2;60.0
47710;BME280;33473;51.640;5.892;2023-07-24T01:48:11;100200;;;24.2;60.0
47710;BME280;33473;51.640;5.892;2023-07-24T02:01:33;100200;;;24.2;60.0
47710;BME280;33473;51.640;5.892;2023-07-24T02:14:54;100200;;;24.2;61.0
47710;BME280;33473;51.640;5.892;2023-07-24T02:28:14;100200;;;24.2;61.0
47710;BME280;33473;51.640;5.892;2023-07-24T02:41:33;100200;;;24.2;61.0
47710;BME280;33473;51.640;5.892;2023-07-24T02:54:55;100200;;;24.3;61.0
47710;BME280;33473;51.640;5.892;2023-07-24T03:08:16;100200;;;24.3;61.0
47710;BME280;33473;51.640;5.892;2023-07-24T03:21:37;100200;;;24.2;61.0
47710;BME280;33473;51.640;5.892;2023-07-24T03:34:58;100200;;;24.1;60.0
47710;BME280;33473;51.640;5.892;2023-07-24T03:48:18;100100;;;24.0;60.0
47710;BME280;33473;51.640;5.892;2023-07-24T04:01:39;100200;;;23.9;60.0
47710;BME280;33473;51.640;5.892;2023-07-24T04:14:59;100200;;;23.9;61.0
47710;BME280;33473;51.640;5.892;2023-07-24T04:28:18;100200;;;23.8;60.0
47710;BME280;33473;51.640;5.892;2023-07-24T04:41:40;100200;;;23.5;59.0
47710;BME280;33473;51.640;5.892;2023-07-24T04:54:59;100200;;;23.1;59.0
47710;BME280;33473;51.640;5.892;2023-07-24T05:08:19;100200;;;23.1;60.0
47710;BME280;33473;51.640;5.892;2023-07-24T05:21:39;100200;;;23.1;60.0
47710;BME280;33473;51.640;5.892;2023-07-24T05:35:00;100200;;;23.2;60.0
47710;BME280;33473;51.640;5.892;2023-07-24T05:48:20;100200;;;23.3;61.0
47710;BME280;33473;51.640;5.892;2023-07-24T06:01:41;100200;;;23.2;61.0
47710;BME280;33473;51.640;5.892;2023-07-24T06:15:01;100200;;;23.4;61.0
47710;BME280;33473;51.640;5.892;2023-07-24T06:28:20;100200;;;23.6;61.0
47710;BME280;33473;51.640;5.892;2023-07-24T06:41:40;100200;;;23.8;61.0
47710;BME280;33473;51.640;5.892;2023-07-24T06:55:00;100200;;;24.0;61.0
47710;BME280;33473;51.640;5.892;2023-07-24T07:08:21;100200;;;24.3;62.0
47710;BME280;33473;51.640;5.892;2023-07-24T07:21:41;100200;;;24.3;60.0
47710;BME280;33473;51.640;5.892;2023-07-24T07:35:02;100200;;;24.2;60.0
47710;BME280;33473;51.640;5.892;2023-07-24T07:48:22;100200;;;24.3;60.0
47710;BME280;33473;51.640;5.892;2023-07-24T08:01:41;100200;;;24.3;59.0
47710;BME280;33473;51.640;5.892;2023-07-24T08:15:01;100200;;;24.4;60.0
47710;BME280;33473;51.640;5.892;2023-07-24T08:28:21;100200;;;24.7;60.0
47710;BME280;33473;51.640;5.892;2023-07-24T08:41:42;100200;;;24.8;59.0
47710;BME280;33473;51.640;5.892;2023-07-24T08:55:02;100200;;;25.0;58.0
47710;BME280;33473;51.640;5.892;2023-07-24T09:08:23;100200;;;25.0;56.0
47710;BME280;33473;51.640;5.892;2023-07-24T09:21:44;100200;;;24.9;57.0
47710;BME280;33473;51.640;5.892;2023-07-24T09:35:04;100200;;;25.2;58.0
47710;BME280;33473;51.640;5.892;2023-07-24T09:48:24;100100;;;25.8;55.0
47710;BME280;33473;51.640;5.892;2023-07-24T10:01:45;100100;;;26.0;53.0
47710;BME280;33473;51.640;5.892;2023-07-24T10:15:06;100100;;;25.9;53.0
47710;BME280;33473;51.640;5.892;2023-07-24T10:28:26;100100;;;25.6;54.0
47710;BME280;33473;51.640;5.892;2023-07-24T10:41:47;100100;;;25.3;54.0
47710;BME280;33473;51.640;5.892;2023-07-24T10:55:07;100100;;;25.1;55.0
47710;BME280;33473;51.640;5.892;2023-07-24T11:08:26;100100;;;24.9;55.0
47710;BME280;33473;51.640;5.892;2023-07-24T11:21:46;100100;;;24.9;57.0
47710;BME280;33473;51.640;5.892;2023-07-24T11:35:06;100100;;;25.1;54.0
47710;BME280;33473;51.640;5.892;2023-07-24T11:48:27;100100;;;25.5;53.0
47710;BME280;33473;51.640;5.892;2023-07-24T12:01:47;100100;;;26.1;52.0
47710;BME280;33473;51.640;5.892;2023-07-24T12:15:08;100100;;;26.2;51.0
47710;BME280;33473;51.640;5.892;2023-07-24T12:28:28;100100;;;26.1;50.0
47710;BME280;33473;51.640;5.892;2023-07-24T12:41:49;100100;;;26.3;50.0
47710;BME280;33473;51.640;5.892;2023-07-24T12:55:10;100100;;;26.7;50.0
47710;BME280;33473;51.640;5.892;2023-07-24T13:08:30;100100;;;27.0;49.0
47710;BME280;33473;51.640;5.892;2023-07-24T13:21:50;100100;;;27.0;47.0
47710;BME280;33473;51.640;5.892;2023-07-24T13:35:11;100100;;;27.1;49.0
47710;BME280;33473;51.640;5.892;2023-07-24T13:48:32;100100;;;27.8;49.0
47710;BME280;33473;51.640;5.892;2023-07-24T14:01:53;100100;;;27.8;47.0
47710;BME280;33473;51.640;5.892;2023-07-24T14:15:13;100100;;;27.3;47.0
47710;BME280;33473;51.640;5.892;2023-07-24T14:28:34;100100;;;26.3;48.0
47710;BME280;33473;51.640;5.892;2023-07-24T14:41:54;100100;;;25.5;49.0
47710;BME280;33473;51.640;5.892;2023-07-24T14:55:14;100100;;;24.6;52.0
47710;BME280;33473;51.640;5.892;2023-07-24T15:08:33;100100;;;24.9;56.0
47710;BME280;33473;51.640;5.892;2023-07-24T15:21:54;100100;;;25.1;56.0
47710;BME280;33473;51.640;5.892;2023-07-24T15:35:16;100100;;;25.9;56.0
47710;BME280;33473;51.640;5.892;2023-07-24T15:48:37;100100;;;26.2;54.0
47710;BME280;33473;51.640;5.892;2023-07-24T16:01:57;100100;;;25.7;53.0
47710;BME280;33473;51.640;5.892;2023-07-24T16:15:18;100200;;;24.5;53.0
47710;BME280;33473;51.640;5.892;2023-07-24T16:28:39;100200;;;24.4;56.0
47710;BME280;33473;51.640;5.892;2023-07-24T16:42:00;100200;;;24.4;57.0
47710;BME280;33473;51.640;5.892;2023-07-24T16:55:22;100200;;;24.4;58.0
47710;BME280;33473;51.640;5.892;2023-07-24T17:08:43;100200;;;24.9;60.0
47710;BME280;33473;51.640;5.892;2023-07-24T17:22:03;100200;;;25.0;58.0
47710;BME280;33473;51.640;5.892;2023-07-24T17:48:45;100300;;;24.3;54.0
47710;BME280;33473;51.640;5.892;2023-07-24T18:02:05;100300;;;23.9;55.0
47710;BME280;33473;51.640;5.892;2023-07-24T18:15:24;100300;;;23.5;54.0
47710;BME280;33473;51.640;5.892;2023-07-24T18:28:44;100300;;;23.1;55.0
47710;BME280;33473;51.640;5.892;2023-07-24T18:42:05;100300;;;22.7;55.0
47710;BME280;33473;51.640;5.892;2023-07-24T18:55:25;100300;;;22.5;55.0
47710;BME280;33473;51.640;5.892;2023-07-24T19:08:45;100400;;;22.3;55.0
47710;BME280;33473;51.640;5.892;2023-07-24T19:22:04;100400;;;22.0;55.0
47710;BME280;33473;51.640;5.892;2023-07-24T19:35:25;100400;;;21.9;55.0
47710;BME280;33473;51.640;5.892;2023-07-24T19:48:47;100400;;;21.7;55.0
47710;BME280;33473;51.640;5.892;2023-07-24T20:02:08;100500;;;21.6;56.0
47710;BME280;33473;51.640;5.892;2023-07-24T20:15:29;100500;;;21.6;56.0
47710;BME280;33473;51.640;5.892;2023-07-24T20:28:50;100500;;;21.6;56.0
47710;BME280;33473;51.640;5.892;2023-07-24T20:42:12;100500;;;21.7;56.0
47710;BME280;33473;51.640;5.892;2023-07-24T20:55:33;100500;;;21.6;56.0
47710;BME280;33473;51.640;5.892;2023-07-24T21:08:54;100500;;;21.6;56.0
47710;BME280;33473;51.640;5.892;2023-07-24T21:22:15;100500;;;21.6;56.0
47710;BME280;33473;51.640;5.892;2023-07-24T21:35:36;100500;;;21.6;56.0
47710;BME280;33473;51.640;5.892;2023-07-24T21:48:56;100500;;;21.6;56.0
47710;BME280;33473;51.640;5.892;2023-07-24T22:02:17;100500;;;21.4;56.0
47710;BME280;33473;51.640;5.892;2023-07-24T22:15:37;100500;;;21.2;56.0
47710;BME280;33473;51.640;5.892;2023-07-24T22:28:57;100500;;;21.1;56.0
47710;BME280;33473;51.640;5.892;2023-07-24T22:42:17;100500;;;20.9;56.0
47710;BME280;33473;51.640;5.892;2023-07-24T22:55:36;100500;;;20.7;56.0
47710;BME280;33473;51.640;5.892;2023-07-24T23:08:57;100500;;;20.5;56.0
47710;BME280;33473;51.640;5.892;2023-07-24T23:22:19;100500;;;20.4;56.0
47710;BME280;33473;51.640;5.892;2023-07-24T23:35:40;100500;;;20.2;55.0
47710;BME280;33473;51.640;5.892;2023-07-24T23:49:00;100500;;;19.9;55.0
